Terminal Aerodrome Forecast
Issued by NWS

Home | Current Version | Previous Version | Text Only | Print | Product List | Glossary On
Versions: 1 2 3 4 5 6 7 8 9 10 11 12 13 14 15 16 17 18 19
389
FTUS43 KGRR 130345 AAA
TAFAZO
TAF AMD
KAZO 130345Z 1304/1324 34014KT 6SM -SN OVC035
      TEMPO 1304/1307 3SM -SHSN BKN018
     FM131500 32013G23KT 5SM -SN BKN035
     FM132000 31008KT P6SM SCT040=

USA.gov is the U.S. government's official web portal to all federal, state and local government web resources and services.